sensor_id;sensor_type;location;lat;lon;timestamp;P1;durP1;ratioP1;P2;durP2;ratioP2
59016;SDS011;44800;55.600;38.134;2022-10-03T00:00:23;14.40;;;8.27;;
59016;SDS011;44800;55.600;38.134;2022-10-03T00:05:56;13.48;;;7.65;;
59016;SDS011;44800;55.600;38.134;2022-10-03T00:08:34;14.10;;;8.68;;
59016;SDS011;44800;55.600;38.134;2022-10-03T00:11:33;12.93;;;8.45;;
59016;SDS011;44800;55.600;38.134;2022-10-03T00:14:09;10.93;;;7.45;;
59016;SDS011;44800;55.600;38.134;2022-10-03T00:16:43;17.63;;;9.15;;
59016;SDS011;44800;55.600;38.134;2022-10-03T00:19:18;14.20;;;9.50;;
59016;SDS011;44800;55.600;38.134;2022-10-03T00:21:57;10.70;;;8.48;;
59016;SDS011;44800;55.600;38.134;2022-10-03T00:24:37;14.98;;;9.93;;
59016;SDS011;44800;55.600;38.134;2022-10-03T00:27:12;15.18;;;8.80;;
59016;SDS011;44800;55.600;38.134;2022-10-03T00:29:54;14.65;;;9.88;;
59016;SDS011;44800;55.600;38.134;2022-10-03T00:32:34;15.88;;;8.77;;
59016;SDS011;44800;55.600;38.134;2022-10-03T00:35:16;15.55;;;9.65;;
59016;SDS011;44800;55.600;38.134;2022-10-03T00:37:58;13.50;;;9.60;;
59016;SDS011;44800;55.600;38.134;2022-10-03T00:40:58;15.18;;;9.13;;
59016;SDS011;44800;55.600;38.134;2022-10-03T00:43:45;14.43;;;9.57;;
59016;SDS011;44800;55.600;38.134;2022-10-03T00:55:54;14.85;;;8.95;;
59016;SDS011;44800;55.600;38.134;2022-10-03T00:58:36;12.02;;;8.38;;
59016;SDS011;44800;55.600;38.134;2022-10-03T01:01:23;11.88;;;8.25;;
59016;SDS011;44800;55.600;38.134;2022-10-03T01:04:02;13.88;;;8.35;;
59016;SDS011;44800;55.600;38.134;2022-10-03T01:06:38;11.55;;;8.48;;
59016;SDS011;44800;55.600;38.134;2022-10-03T01:09:11;12.23;;;8.27;;
59016;SDS011;44800;55.600;38.134;2022-10-03T01:12:10;11.88;;;9.40;;
59016;SDS011;44800;55.600;38.134;2022-10-03T01:14:57;13.07;;;8.18;;
59016;SDS011;44800;55.600;38.134;2022-10-03T01:17:37;11.40;;;7.25;;
59016;SDS011;44800;55.600;38.134;2022-10-03T01:20:19;10.70;;;7.93;;
59016;SDS011;44800;55.600;38.134;2022-10-03T01:25:56;14.02;;;9.50;;
59016;SDS011;44800;55.600;38.134;2022-10-03T01:28:44;12.93;;;8.65;;
59016;SDS011;44800;55.600;38.134;2022-10-03T01:31:37;13.25;;;8.38;;
59016;SDS011;44800;55.600;38.134;2022-10-03T01:34:11;12.10;;;8.57;;
59016;SDS011;44800;55.600;38.134;2022-10-03T01:36:46;13.55;;;8.68;;
59016;SDS011;44800;55.600;38.134;2022-10-03T01:39:23;11.63;;;7.20;;
59016;SDS011;44800;55.600;38.134;2022-10-03T01:41:56;10.77;;;6.72;;
59016;SDS011;44800;55.600;38.134;2022-10-03T01:44:30;10.93;;;6.90;;
59016;SDS011;44800;55.600;38.134;2022-10-03T01:47:12;11.27;;;7.63;;
59016;SDS011;44800;55.600;38.134;2022-10-03T01:49:45;7.82;;;5.78;;
59016;SDS011;44800;55.600;38.134;2022-10-03T01:52:18;14.35;;;6.68;;
59016;SDS011;44800;55.600;38.134;2022-10-03T01:54:53;7.72;;;5.57;;
59016;SDS011;44800;55.600;38.134;2022-10-03T01:57:28;12.23;;;7.57;;
59016;SDS011;44800;55.600;38.134;2022-10-03T02:00:04;8.40;;;5.65;;
59016;SDS011;44800;55.600;38.134;2022-10-03T02:02:38;16.10;;;7.55;;
59016;SDS011;44800;55.600;38.134;2022-10-03T02:05:12;9.48;;;6.70;;
59016;SDS011;44800;55.600;38.134;2022-10-03T02:07:47;14.88;;;7.05;;
59016;SDS011;44800;55.600;38.134;2022-10-03T02:12:47;8.63;;;5.78;;
59016;SDS011;44800;55.600;38.134;2022-10-03T02:15:23;10.10;;;6.93;;
59016;SDS011;44800;55.600;38.134;2022-10-03T02:17:53;10.63;;;6.82;;
59016;SDS011;44800;55.600;38.134;2022-10-03T02:20:25;8.82;;;6.85;;
59016;SDS011;44800;55.600;38.134;2022-10-03T02:22:58;7.07;;;5.88;;
59016;SDS011;44800;55.600;38.134;2022-10-03T02:25:31;9.30;;;6.30;;
59016;SDS011;44800;55.600;38.134;2022-10-03T02:31:28;9.20;;;6.40;;
59016;SDS011;44800;55.600;38.134;2022-10-03T02:34:23;10.35;;;6.80;;
59016;SDS011;44800;55.600;38.134;2022-10-03T02:37:04;8.98;;;6.25;;
59016;SDS011;44800;55.600;38.134;2022-10-03T02:39:47;8.65;;;7.40;;
59016;SDS011;44800;55.600;38.134;2022-10-03T02:45:31;9.13;;;6.70;;
59016;SDS011;44800;55.600;38.134;2022-10-03T02:48:41;10.18;;;6.30;;
59016;SDS011;44800;55.600;38.134;2022-10-03T02:51:40;11.02;;;7.03;;
59016;SDS011;44800;55.600;38.134;2022-10-03T03:00:49;11.30;;;6.28;;
59016;SDS011;44800;55.600;38.134;2022-10-03T03:03:42;10.65;;;7.15;;
59016;SDS011;44800;55.600;38.134;2022-10-03T03:15:11;12.82;;;7.13;;
59016;SDS011;44800;55.600;38.134;2022-10-03T03:18:05;7.57;;;6.00;;
59016;SDS011;44800;55.600;38.134;2022-10-03T03:20:47;12.35;;;8.88;;
59016;SDS011;44800;55.600;38.134;2022-10-03T03:23:26;16.60;;;9.02;;
59016;SDS011;44800;55.600;38.134;2022-10-03T03:28:56;11.32;;;7.07;;
59016;SDS011;44800;55.600;38.134;2022-10-03T03:31:29;12.07;;;7.85;;
59016;SDS011;44800;55.600;38.134;2022-10-03T03:34:02;13.18;;;8.88;;
59016;SDS011;44800;55.600;38.134;2022-10-03T03:36:37;14.45;;;8.90;;
59016;SDS011;44800;55.600;38.134;2022-10-03T03:39:17;12.63;;;7.65;;
59016;SDS011;44800;55.600;38.134;2022-10-03T03:41:55;14.32;;;9.20;;
59016;SDS011;44800;55.600;38.134;2022-10-03T03:47:28;12.50;;;6.50;;
59016;SDS011;44800;55.600;38.134;2022-10-03T03:50:11;13.27;;;8.27;;
59016;SDS011;44800;55.600;38.134;2022-10-03T03:52:55;11.07;;;8.32;;
59016;SDS011;44800;55.600;38.134;2022-10-03T03:58:41;13.82;;;9.75;;
59016;SDS011;44800;55.600;38.134;2022-10-03T04:01:25;16.33;;;10.82;;
59016;SDS011;44800;55.600;38.134;2022-10-03T04:04:07;15.00;;;9.75;;
59016;SDS011;44800;55.600;38.134;2022-10-03T04:06:47;12.55;;;9.45;;
59016;SDS011;44800;55.600;38.134;2022-10-03T04:09:38;17.70;;;9.45;;
59016;SDS011;44800;55.600;38.134;2022-10-03T04:12:15;10.43;;;7.55;;
59016;SDS011;44800;55.600;38.134;2022-10-03T04:14:59;14.63;;;9.00;;
59016;SDS011;44800;55.600;38.134;2022-10-03T04:20:52;10.75;;;8.02;;
59016;SDS011;44800;55.600;38.134;2022-10-03T04:23:37;13.00;;;8.68;;
59016;SDS011;44800;55.600;38.134;2022-10-03T04:26:26;13.85;;;9.35;;
59016;SDS011;44800;55.600;38.134;2022-10-03T04:29:14;15.05;;;9.25;;
59016;SDS011;44800;55.600;38.134;2022-10-03T04:32:00;15.35;;;8.75;;
59016;SDS011;44800;55.600;38.134;2022-10-03T04:34:39;13.27;;;8.80;;
59016;SDS011;44800;55.600;38.134;2022-10-03T04:37:23;12.73;;;9.75;;
59016;SDS011;44800;55.600;38.134;2022-10-03T04:40:01;14.55;;;10.40;;
59016;SDS011;44800;55.600;38.134;2022-10-03T04:42:42;10.52;;;8.57;;
59016;SDS011;44800;55.600;38.134;2022-10-03T04:45:25;14.95;;;10.48;;
59016;SDS011;44800;55.600;38.134;2022-10-03T04:48:03;15.68;;;8.98;;
59016;SDS011;44800;55.600;38.134;2022-10-03T04:50:36;12.43;;;9.40;;
59016;SDS011;44800;55.600;38.134;2022-10-03T04:53:20;12.55;;;8.60;;
59016;SDS011;44800;55.600;38.134;2022-10-03T04:55:55;16.63;;;8.65;;
59016;SDS011;44800;55.600;38.134;2022-10-03T04:58:33;13.43;;;8.63;;
59016;SDS011;44800;55.600;38.134;2022-10-03T05:01:07;11.63;;;7.63;;
59016;SDS011;44800;55.600;38.134;2022-10-03T05:03:43;11.73;;;8.80;;
59016;SDS011;44800;55.600;38.134;2022-10-03T05:06:25;12.43;;;9.45;;
59016;SDS011;44800;55.600;38.134;2022-10-03T05:09:00;12.57;;;7.93;;
59016;SDS011;44800;55.600;38.134;2022-10-03T05:11:47;12.43;;;8.30;;
59016;SDS011;44800;55.600;38.134;2022-10-03T05:14:23;13.63;;;8.05;;
59016;SDS011;44800;55.600;38.134;2022-10-03T05:16:56;15.07;;;9.52;;
59016;SDS011;44800;55.600;38.134;2022-10-03T05:19:50;8.55;;;5.93;;
59016;SDS011;44800;55.600;38.134;2022-10-03T05:22:28;12.40;;;8.23;;
59016;SDS011;44800;55.600;38.134;2022-10-03T05:25:10;14.00;;;8.20;;
59016;SDS011;44800;55.600;38.134;2022-10-03T05:27:49;10.63;;;8.13;;
59016;SDS011;44800;55.600;38.134;2022-10-03T05:30:23;11.63;;;7.88;;
59016;SDS011;44800;55.600;38.134;2022-10-03T05:33:02;13.90;;;8.75;;
59016;SDS011;44800;55.600;38.134;2022-10-03T05:35:41;12.45;;;8.68;;
59016;SDS011;44800;55.600;38.134;2022-10-03T05:38:26;12.05;;;9.00;;
59016;SDS011;44800;55.600;38.134;2022-10-03T05:41:02;13.00;;;8.70;;
59016;SDS011;44800;55.600;38.134;2022-10-03T05:43:45;13.60;;;7.32;;
59016;SDS011;44800;55.600;38.134;2022-10-03T05:46:37;16.30;;;8.02;;
59016;SDS011;44800;55.600;38.134;2022-10-03T05:49:22;13.02;;;8.48;;
59016;SDS011;44800;55.600;38.134;2022-10-03T05:55:22;9.95;;;5.35;;
59016;SDS011;44800;55.600;38.134;2022-10-03T05:57:59;10.45;;;7.28;;
59016;SDS011;44800;55.600;38.134;2022-10-03T06:06:41;12.95;;;6.75;;
59016;SDS011;44800;55.600;38.134;2022-10-03T06:09:32;12.17;;;7.30;;
59016;SDS011;44800;55.600;38.134;2022-10-03T06:12:06;7.40;;;5.45;;
59016;SDS011;44800;55.600;38.134;2022-10-03T06:14:43;13.07;;;7.20;;
59016;SDS011;44800;55.600;38.134;2022-10-03T06:17:37;14.43;;;6.75;;
59016;SDS011;44800;55.600;38.134;2022-10-03T06:23:11;14.98;;;5.95;;
59016;SDS011;44800;55.600;38.134;2022-10-03T06:25:58;12.13;;;6.28;;
59016;SDS011;44800;55.600;38.134;2022-10-03T06:32:09;12.13;;;6.78;;
59016;SDS011;44800;55.600;38.134;2022-10-03T06:34:53;11.20;;;5.68;;
59016;SDS011;44800;55.600;38.134;2022-10-03T06:44:05;9.70;;;5.75;;
59016;SDS011;44800;55.600;38.134;2022-10-03T06:53:04;8.43;;;5.65;;
59016;SDS011;44800;55.600;38.134;2022-10-03T06:56:03;10.10;;;4.97;;
59016;SDS011;44800;55.600;38.134;2022-10-03T06:58:52;5.43;;;4.03;;
59016;SDS011;44800;55.600;38.134;2022-10-03T07:11:19;9.68;;;4.95;;
59016;SDS011;44800;55.600;38.134;2022-10-03T07:14:10;13.27;;;4.93;;
59016;SDS011;44800;55.600;38.134;2022-10-03T07:16:59;9.85;;;4.75;;
59016;SDS011;44800;55.600;38.134;2022-10-03T07:19:45;6.25;;;3.58;;
59016;SDS011;44800;55.600;38.134;2022-10-03T07:25:56;11.48;;;4.10;;
59016;SDS011;44800;55.600;38.134;2022-10-03T07:32:12;9.30;;;4.30;;
59016;SDS011;44800;55.600;38.134;2022-10-03T07:35:04;5.85;;;3.33;;
59016;SDS011;44800;55.600;38.134;2022-10-03T07:37:48;7.53;;;4.00;;
59016;SDS011;44800;55.600;38.134;2022-10-03T07:40:55;8.75;;;4.30;;
59016;SDS011;44800;55.600;38.134;2022-10-03T07:49:51;8.98;;;3.50;;
59016;SDS011;44800;55.600;38.134;2022-10-03T07:52:58;5.00;;;3.70;;
59016;SDS011;44800;55.600;38.134;2022-10-03T07:55:46;7.32;;;3.58;;
59016;SDS011;44800;55.600;38.134;2022-10-03T07:58:28;7.95;;;3.70;;
59016;SDS011;44800;55.600;38.134;2022-10-03T08:01:25;9.63;;;3.78;;
59016;SDS011;44800;55.600;38.134;2022-10-03T08:04:19;7.63;;;3.72;;
59016;SDS011;44800;55.600;38.134;2022-10-03T08:07:02;6.93;;;3.35;;
59016;SDS011;44800;55.600;38.134;2022-10-03T08:09:46;8.45;;;3.85;;
59016;SDS011;44800;55.600;38.134;2022-10-03T08:15:34;7.72;;;4.22;;
59016;SDS011;44800;55.600;38.134;2022-10-03T08:18:19;8.55;;;3.50;;
59016;SDS011;44800;55.600;38.134;2022-10-03T08:21:00;4.32;;;2.72;;
59016;SDS011;44800;55.600;38.134;2022-10-03T08:23:43;10.05;;;3.67;;
59016;SDS011;44800;55.600;38.134;2022-10-03T08:26:32;4.07;;;2.67;;
59016;SDS011;44800;55.600;38.134;2022-10-03T08:29:20;6.10;;;3.60;;
59016;SDS011;44800;55.600;38.134;2022-10-03T08:38:13;7.28;;;3.67;;
59016;SDS011;44800;55.600;38.134;2022-10-03T08:41:13;8.82;;;4.22;;
59016;SDS011;44800;55.600;38.134;2022-10-03T08:47:13;6.85;;;3.35;;
59016;SDS011;44800;55.600;38.134;2022-10-03T08:53:05;5.90;;;2.63;;
59016;SDS011;44800;55.600;38.134;2022-10-03T08:55:47;4.60;;;3.33;;
59016;SDS011;44800;55.600;38.134;2022-10-03T09:01:30;6.43;;;2.90;;
59016;SDS011;44800;55.600;38.134;2022-10-03T09:07:10;4.55;;;2.63;;
59016;SDS011;44800;55.600;38.134;2022-10-03T09:16:23;4.63;;;2.40;;
59016;SDS011;44800;55.600;38.134;2022-10-03T09:19:11;5.40;;;2.20;;
59016;SDS011;44800;55.600;38.134;2022-10-03T09:21:55;3.40;;;2.50;;
59016;SDS011;44800;55.600;38.134;2022-10-03T09:24:48;5.95;;;2.78;;
59016;SDS011;44800;55.600;38.134;2022-10-03T09:27:43;4.88;;;2.17;;
59016;SDS011;44800;55.600;38.134;2022-10-03T09:30:41;3.78;;;2.22;;
59016;SDS011;44800;55.600;38.134;2022-10-03T09:36:55;3.95;;;2.45;;
59016;SDS011;44800;55.600;38.134;2022-10-03T09:42:58;4.28;;;3.08;;
59016;SDS011;44800;55.600;38.134;2022-10-03T09:45:42;7.60;;;3.30;;
59016;SDS011;44800;55.600;38.134;2022-10-03T09:51:29;6.53;;;3.60;;
59016;SDS011;44800;55.600;38.134;2022-10-03T09:54:16;6.18;;;4.03;;
59016;SDS011;44800;55.600;38.134;2022-10-03T10:00:13;7.97;;;3.58;;
59016;SDS011;44800;55.600;38.134;2022-10-03T10:02:55;5.40;;;3.60;;
59016;SDS011;44800;55.600;38.134;2022-10-03T10:08:41;6.25;;;4.07;;
59016;SDS011;44800;55.600;38.134;2022-10-03T10:14:48;11.57;;;4.28;;
59016;SDS011;44800;55.600;38.134;2022-10-03T10:17:50;5.10;;;2.40;;
59016;SDS011;44800;55.600;38.134;2022-10-03T10:20:41;5.03;;;2.83;;
59016;SDS011;44800;55.600;38.134;2022-10-03T10:23:34;6.22;;;3.28;;
59016;SDS011;44800;55.600;38.134;2022-10-03T10:26:38;6.40;;;3.78;;
59016;SDS011;44800;55.600;38.134;2022-10-03T10:29:27;5.88;;;2.75;;
59016;SDS011;44800;55.600;38.134;2022-10-03T10:38:20;1.83;;;1.20;;
59016;SDS011;44800;55.600;38.134;2022-10-03T10:41:03;0.73;;;0.55;;
59016;SDS011;44800;55.600;38.134;2022-10-03T10:47:26;0.85;;;0.70;;
59016;SDS011;44800;55.600;38.134;2022-10-03T10:50:30;0.82;;;0.52;;
59016;SDS011;44800;55.600;38.134;2022-10-03T10:56:25;0.55;;;0.30;;
59016;SDS011;44800;55.600;38.134;2022-10-03T11:08:45;0.77;;;0.47;;
59016;SDS011;44800;55.600;38.134;2022-10-03T11:17:52;2.40;;;0.80;;
59016;SDS011;44800;55.600;38.134;2022-10-03T11:24:01;0.75;;;0.70;;
59016;SDS011;44800;55.600;38.134;2022-10-03T11:30:02;0.55;;;0.45;;
59016;SDS011;44800;55.600;38.134;2022-10-03T11:36:01;0.50;;;0.35;;
59016;SDS011;44800;55.600;38.134;2022-10-03T11:38:40;0.60;;;0.60;;
59016;SDS011;44800;55.600;38.134;2022-10-03T11:41:17;1.50;;;1.40;;
59016;SDS011;44800;55.600;38.134;2022-10-03T11:44:07;2.30;;;0.73;;
59016;SDS011;44800;55.600;38.134;2022-10-03T11:46:48;0.80;;;0.50;;
59016;SDS011;44800;55.600;38.134;2022-10-03T11:49:28;0.38;;;0.38;;
59016;SDS011;44800;55.600;38.134;2022-10-03T11:52:07;0.70;;;0.60;;
59016;SDS011;44800;55.600;38.134;2022-10-03T11:54:44;0.63;;;0.63;;
59016;SDS011;44800;55.600;38.134;2022-10-03T11:57:15;0.30;;;0.28;;
59016;SDS011;44800;55.600;38.134;2022-10-03T11:59:52;2.65;;;0.55;;
59016;SDS011;44800;55.600;38.134;2022-10-03T12:02:34;1.13;;;0.47;;
59016;SDS011;44800;55.600;38.134;2022-10-03T12:05:21;0.65;;;0.35;;
59016;SDS011;44800;55.600;38.134;2022-10-03T12:07:56;0.98;;;0.40;;
59016;SDS011;44800;55.600;38.134;2022-10-03T12:10:54;0.70;;;0.47;;
59016;SDS011;44800;55.600;38.134;2022-10-03T12:13:31;1.65;;;0.30;;
59016;SDS011;44800;55.600;38.134;2022-10-03T12:16:02;0.75;;;0.20;;
59016;SDS011;44800;55.600;38.134;2022-10-03T12:18:48;0.55;;;0.25;;
59016;SDS011;44800;55.600;38.134;2022-10-03T12:21:18;0.73;;;0.65;;
59016;SDS011;44800;55.600;38.134;2022-10-03T12:23:56;1.10;;;0.20;;
59016;SDS011;44800;55.600;38.134;2022-10-03T12:26:38;0.63;;;0.38;;
59016;SDS011;44800;55.600;38.134;2022-10-03T12:29:12;0.63;;;0.30;;
59016;SDS011;44800;55.600;38.134;2022-10-03T12:31:43;0.45;;;0.20;;
59016;SDS011;44800;55.600;38.134;2022-10-03T12:34:20;1.30;;;0.10;;
59016;SDS011;44800;55.600;38.134;2022-10-03T12:36:59;0.40;;;0.40;;
59016;SDS011;44800;55.600;38.134;2022-10-03T12:39:41;1.40;;;0.40;;
59016;SDS011;44800;55.600;38.134;2022-10-03T12:42:18;0.40;;;0.35;;
59016;SDS011;44800;55.600;38.134;2022-10-03T12:44:56;0.50;;;0.50;;
59016;SDS011;44800;55.600;38.134;2022-10-03T12:47:29;1.60;;;0.45;;
59016;SDS011;44800;55.600;38.134;2022-10-03T12:50:25;1.75;;;0.25;;
59016;SDS011;44800;55.600;38.134;2022-10-03T12:53:07;0.38;;;0.32;;
59016;SDS011;44800;55.600;38.134;2022-10-03T12:55:59;1.67;;;0.25;;
59016;SDS011;44800;55.600;38.134;2022-10-03T12:58:34;0.95;;;0.30;;
59016;SDS011;44800;55.600;38.134;2022-10-03T13:01:10;1.42;;;0.22;;
59016;SDS011;44800;55.600;38.134;2022-10-03T13:03:48;0.70;;;0.28;;
59016;SDS011;44800;55.600;38.134;2022-10-03T13:09:41;1.50;;;0.30;;
59016;SDS011;44800;55.600;38.134;2022-10-03T13:12:22;0.43;;;0.30;;
59016;SDS011;44800;55.600;38.134;2022-10-03T13:21:09;3.92;;;0.85;;
59016;SDS011;44800;55.600;38.134;2022-10-03T13:24:01;1.42;;;0.47;;
59016;SDS011;44800;55.600;38.134;2022-10-03T13:26:36;1.75;;;0.30;;
59016;SDS011;44800;55.600;38.134;2022-10-03T13:29:14;1.75;;;0.45;;
59016;SDS011;44800;55.600;38.134;2022-10-03T13:32:02;1.35;;;0.40;;
59016;SDS011;44800;55.600;38.134;2022-10-03T13:34:55;0.55;;;0.55;;
59016;SDS011;44800;55.600;38.134;2022-10-03T13:37:57;1.52;;;0.30;;
59016;SDS011;44800;55.600;38.134;2022-10-03T13:40:42;0.68;;;0.30;;
59016;SDS011;44800;55.600;38.134;2022-10-03T13:43:12;0.50;;;0.40;;
59016;SDS011;44800;55.600;38.134;2022-10-03T13:45:45;4.47;;;0.45;;
59016;SDS011;44800;55.600;38.134;2022-10-03T13:48:17;0.30;;;0.15;;
59016;SDS011;44800;55.600;38.134;2022-10-03T13:50:49;1.95;;;0.65;;
59016;SDS011;44800;55.600;38.134;2022-10-03T13:53:31;2.67;;;1.35;;
59016;SDS011;44800;55.600;38.134;2022-10-03T13:56:09;2.30;;;0.30;;
59016;SDS011;44800;55.600;38.134;2022-10-03T13:58:41;1.15;;;0.30;;
59016;SDS011;44800;55.600;38.134;2022-10-03T14:01:37;1.60;;;0.40;;
59016;SDS011;44800;55.600;38.134;2022-10-03T14:07:08;0.93;;;0.63;;
59016;SDS011;44800;55.600;38.134;2022-10-03T14:12:39;3.20;;;0.57;;
59016;SDS011;44800;55.600;38.134;2022-10-03T14:15:24;2.42;;;0.50;;
59016;SDS011;44800;55.600;38.134;2022-10-03T14:17:58;0.60;;;0.50;;
59016;SDS011;44800;55.600;38.134;2022-10-03T14:20:34;0.40;;;0.32;;
59016;SDS011;44800;55.600;38.134;2022-10-03T14:23:12;1.15;;;0.43;;
59016;SDS011;44800;55.600;38.134;2022-10-03T14:25:46;0.40;;;0.35;;
59016;SDS011;44800;55.600;38.134;2022-10-03T14:28:23;1.23;;;0.60;;
59016;SDS011;44800;55.600;38.134;2022-10-03T14:30:56;4.22;;;1.08;;
59016;SDS011;44800;55.600;38.134;2022-10-03T14:33:34;1.55;;;0.70;;
59016;SDS011;44800;55.600;38.134;2022-10-03T14:36:12;1.58;;;0.63;;
59016;SDS011;44800;55.600;38.134;2022-10-03T14:38:57;0.65;;;0.60;;
59016;SDS011;44800;55.600;38.134;2022-10-03T14:44:35;1.05;;;0.77;;
59016;SDS011;44800;55.600;38.134;2022-10-03T14:47:06;1.33;;;0.65;;
59016;SDS011;44800;55.600;38.134;2022-10-03T14:49:36;0.30;;;0.30;;
59016;SDS011;44800;55.600;38.134;2022-10-03T14:52:24;2.08;;;0.60;;
59016;SDS011;44800;55.600;38.134;2022-10-03T14:54:57;1.20;;;0.82;;
59016;SDS011;44800;55.600;38.134;2022-10-03T14:57:39;0.65;;;0.50;;
59016;SDS011;44800;55.600;38.134;2022-10-03T15:00:39;3.15;;;0.60;;
59016;SDS011;44800;55.600;38.134;2022-10-03T15:03:21;0.75;;;0.50;;
59016;SDS011;44800;55.600;38.134;2022-10-03T15:05:58;0.63;;;0.63;;
59016;SDS011;44800;55.600;38.134;2022-10-03T15:08:47;1.45;;;1.23;;
59016;SDS011;44800;55.600;38.134;2022-10-03T15:11:21;0.52;;;0.52;;
59016;SDS011;44800;55.600;38.134;2022-10-03T15:13:53;3.97;;;0.70;;
59016;SDS011;44800;55.600;38.134;2022-10-03T15:16:22;0.50;;;0.50;;
59016;SDS011;44800;55.600;38.134;2022-10-03T15:18:52;2.25;;;0.57;;
59016;SDS011;44800;55.600;38.134;2022-10-03T15:21:23;1.63;;;0.57;;
59016;SDS011;44800;55.600;38.134;2022-10-03T15:23:53;4.55;;;2.42;;
59016;SDS011;44800;55.600;38.134;2022-10-03T15:26:25;0.95;;;0.50;;
59016;SDS011;44800;55.600;38.134;2022-10-03T15:28:56;2.80;;;0.60;;
59016;SDS011;44800;55.600;38.134;2022-10-03T15:31:27;0.75;;;0.73;;
59016;SDS011;44800;55.600;38.134;2022-10-03T15:34:00;0.50;;;0.40;;
59016;SDS011;44800;55.600;38.134;2022-10-03T15:36:30;0.75;;;0.73;;
59016;SDS011;44800;55.600;38.134;2022-10-03T15:39:03;0.43;;;0.43;;
59016;SDS011;44800;55.600;38.134;2022-10-03T15:41:35;0.93;;;0.77;;
59016;SDS011;44800;55.600;38.134;2022-10-03T15:44:16;2.67;;;0.93;;
59016;SDS011;44800;55.600;38.134;2022-10-03T15:46:47;1.77;;;0.75;;
59016;SDS011;44800;55.600;38.134;2022-10-03T15:49:19;0.60;;;0.50;;
59016;SDS011;44800;55.600;38.134;2022-10-03T15:51:51;4.05;;;1.75;;
59016;SDS011;44800;55.600;38.134;2022-10-03T15:54:22;1.23;;;0.40;;
59016;SDS011;44800;55.600;38.134;2022-10-03T15:56:53;0.60;;;0.40;;
59016;SDS011;44800;55.600;38.134;2022-10-03T15:59:24;1.40;;;1.30;;
59016;SDS011;44800;55.600;38.134;2022-10-03T16:01:55;0.90;;;0.38;;
59016;SDS011;44800;55.600;38.134;2022-10-03T16:04:25;0.65;;;0.40;;
59016;SDS011;44800;55.600;38.134;2022-10-03T16:06:58;0.30;;;0.30;;
59016;SDS011;44800;55.600;38.134;2022-10-03T16:09:31;4.07;;;0.30;;
59016;SDS011;44800;55.600;38.134;2022-10-03T16:12:13;0.80;;;0.40;;
59016;SDS011;44800;55.600;38.134;2022-10-03T16:14:57;0.52;;;0.35;;
59016;SDS011;44800;55.600;38.134;2022-10-03T16:17:30;0.30;;;0.22;;
59016;SDS011;44800;55.600;38.134;2022-10-03T16:20:05;0.20;;;0.20;;
59016;SDS011;44800;55.600;38.134;2022-10-03T16:22:40;0.63;;;0.40;;
59016;SDS011;44800;55.600;38.134;2022-10-03T16:25:12;1.10;;;0.20;;
59016;SDS011;44800;55.600;38.134;2022-10-03T16:27:45;2.88;;;0.50;;
59016;SDS011;44800;55.600;38.134;2022-10-03T16:30:20;0.75;;;0.55;;
59016;SDS011;44800;55.600;38.134;2022-10-03T16:32:51;1.45;;;0.63;;
59016;SDS011;44800;55.600;38.134;2022-10-03T16:35:31;4.20;;;1.75;;
59016;SDS011;44800;55.600;38.134;2022-10-03T16:38:04;1.55;;;0.43;;
59016;SDS011;44800;55.600;38.134;2022-10-03T16:40:35;1.50;;;0.80;;
59016;SDS011;44800;55.600;38.134;2022-10-03T16:43:05;0.88;;;0.50;;
59016;SDS011;44800;55.600;38.134;2022-10-03T16:45:39;0.85;;;0.50;;
59016;SDS011;44800;55.600;38.134;2022-10-03T16:48:09;0.93;;;0.60;;
59016;SDS011;44800;55.600;38.134;2022-10-03T16:50:57;2.80;;;0.90;;
59016;SDS011;44800;55.600;38.134;2022-10-03T16:53:25;4.07;;;0.70;;
59016;SDS011;44800;55.600;38.134;2022-10-03T16:55:56;1.52;;;0.65;;
59016;SDS011;44800;55.600;38.134;2022-10-03T16:58:28;1.45;;;0.77;;
59016;SDS011;44800;55.600;38.134;2022-10-03T17:00:59;1.42;;;0.57;;
59016;SDS011;44800;55.600;38.134;2022-10-03T17:03:50;0.65;;;0.65;;
59016;SDS011;44800;55.600;38.134;2022-10-03T17:06:22;2.30;;;0.88;;
59016;SDS011;44800;55.600;38.134;2022-10-03T17:08:56;2.58;;;0.80;;
59016;SDS011;44800;55.600;38.134;2022-10-03T17:11:26;1.52;;;1.25;;
59016;SDS011;44800;55.600;38.134;2022-10-03T17:13:57;3.55;;;1.13;;
59016;SDS011;44800;55.600;38.134;2022-10-03T17:16:30;4.82;;;0.98;;
59016;SDS011;44800;55.600;38.134;2022-10-03T17:19:12;3.35;;;0.60;;
59016;SDS011;44800;55.600;38.134;2022-10-03T17:21:44;3.05;;;1.23;;
59016;SDS011;44800;55.600;38.134;2022-10-03T17:24:21;3.35;;;0.88;;
59016;SDS011;44800;55.600;38.134;2022-10-03T17:26:55;5.57;;;0.90;;
59016;SDS011;44800;55.600;38.134;2022-10-03T17:29:27;3.80;;;1.20;;
59016;SDS011;44800;55.600;38.134;2022-10-03T17:31:59;1.15;;;1.05;;
59016;SDS011;44800;55.600;38.134;2022-10-03T17:34:29;1.38;;;1.27;;
59016;SDS011;44800;55.600;38.134;2022-10-03T17:39:51;2.55;;;1.30;;
59016;SDS011;44800;55.600;38.134;2022-10-03T17:42:25;2.90;;;1.25;;
59016;SDS011;44800;55.600;38.134;2022-10-03T17:45:02;1.83;;;1.15;;
59016;SDS011;44800;55.600;38.134;2022-10-03T17:47:42;1.80;;;1.42;;
59016;SDS011;44800;55.600;38.134;2022-10-03T17:50:18;0.95;;;0.75;;
59016;SDS011;44800;55.600;38.134;2022-10-03T17:52:51;3.72;;;1.38;;
59016;SDS011;44800;55.600;38.134;2022-10-03T17:55:22;2.40;;;1.00;;
59016;SDS011;44800;55.600;38.134;2022-10-03T17:57:53;1.25;;;0.90;;
59016;SDS011;44800;55.600;38.134;2022-10-03T18:00:25;1.63;;;0.85;;
59016;SDS011;44800;55.600;38.134;2022-10-03T18:02:56;1.65;;;0.73;;
59016;SDS011;44800;55.600;38.134;2022-10-03T18:05:28;1.95;;;1.55;;
59016;SDS011;44800;55.600;38.134;2022-10-03T18:08:00;1.23;;;1.13;;
59016;SDS011;44800;55.600;38.134;2022-10-03T18:10:30;1.48;;;1.25;;
59016;SDS011;44800;55.600;38.134;2022-10-03T18:13:06;1.67;;;1.00;;
59016;SDS011;44800;55.600;38.134;2022-10-03T18:15:54;1.05;;;0.63;;
59016;SDS011;44800;55.600;38.134;2022-10-03T18:24:22;3.60;;;1.05;;
59016;SDS011;44800;55.600;38.134;2022-10-03T18:27:02;1.58;;;0.80;;
59016;SDS011;44800;55.600;38.134;2022-10-03T18:29:38;1.20;;;1.08;;
59016;SDS011;44800;55.600;38.134;2022-10-03T18:32:15;2.33;;;1.02;;
59016;SDS011;44800;55.600;38.134;2022-10-03T18:34:46;4.25;;;1.58;;
59016;SDS011;44800;55.600;38.134;2022-10-03T18:37:48;0.98;;;0.75;;
59016;SDS011;44800;55.600;38.134;2022-10-03T18:40:35;1.15;;;0.70;;
59016;SDS011;44800;55.600;38.134;2022-10-03T18:43:20;2.28;;;0.82;;
59016;SDS011;44800;55.600;38.134;2022-10-03T18:46:01;1.55;;;0.40;;
59016;SDS011;44800;55.600;38.134;2022-10-03T18:48:37;0.68;;;0.55;;
59016;SDS011;44800;55.600;38.134;2022-10-03T18:51:11;1.33;;;0.88;;
59016;SDS011;44800;55.600;38.134;2022-10-03T18:53:43;1.65;;;0.80;;
59016;SDS011;44800;55.600;38.134;2022-10-03T18:56:16;1.33;;;1.23;;
59016;SDS011;44800;55.600;38.134;2022-10-03T18:58:53;2.17;;;0.55;;
59016;SDS011;44800;55.600;38.134;2022-10-03T19:01:27;0.98;;;0.50;;
59016;SDS011;44800;55.600;38.134;2022-10-03T19:04:01;1.37;;;0.90;;
59016;SDS011;44800;55.600;38.134;2022-10-03T19:06:35;0.40;;;0.40;;
59016;SDS011;44800;55.600;38.134;2022-10-03T19:09:06;0.90;;;0.63;;
59016;SDS011;44800;55.600;38.134;2022-10-03T19:11:42;2.80;;;1.05;;
59016;SDS011;44800;55.600;38.134;2022-10-03T19:14:15;4.93;;;0.88;;
59016;SDS011;44800;55.600;38.134;2022-10-03T19:17:03;0.65;;;0.52;;
59016;SDS011;44800;55.600;38.134;2022-10-03T19:19:46;1.42;;;0.90;;
59016;SDS011;44800;55.600;38.134;2022-10-03T19:22:29;1.33;;;0.70;;